Terminal Aerodrome Forecast
Issued by NWS Central Illinois

Home | Current Version | Previous Version | Text Only | Print | Product List | Glossary On
Versions: 1 2 3 4 5 6 7 8 9 10 11 12 13
000
FTUS43 KILX 180539
TAFSPI
TAF
KSPI 180539Z 1806/1906 16005KT P6SM SCT150
      TEMPO 1808/1812 4SM BR
     FM181300 14006KT P6SM BKN250
     FM181800 13010G15KT P6SM SCT060 BKN140
     FM190000 11008KT P6SM VCSH SCT050 OVC120=

USA.gov is the U.S. government's official web portal to all federal, state and local government web resources and services.